Limestone, Michigan
Current Conditions -  °F | °C
As of 3:49 PM on Saturday 25 Oct 2014 (Local Time) from KSAW Reporting Station
Clear Clear  
Wind Chill: 55°   Ceiling: Unl
Heat Index: 55°   Visibility: 10mi
Dew Point: 30°   Wind: 21mph
Humidity: 38%   Direction: 270°W
Pressure: 29.72"   Gusts: 30mph
Location:  46.2903°N, 86.758°W
Report Text: KSAW 251949Z 27018G26KT 10SM SKC 13/M01 A2972
Loading
Personal Weather Stations






























Interactive Weather Map
Tropical Storm Tracking
New forecast layout! Learn more

10-Day Weather Forecast

Advertisements
Track Severe Weather on mobile